Time;durP1;ratioP1;P1;durP2;ratioP2;P2;SDS_P1;SDS_P2;PMS_P1;PMS_P2;Temp;Humidity;BMP_temperature;BMP_pressure;BME280_temperature;BME280_humidity;BME280_pressure;Samples;Min_cycle;Max_cycle;Signal;HPM_P1;HPM_P2
2023/07/22 00:00:32;;;;;;;24.97;18.63;;;24.90;47.40;;;;;;5090189;28;20456;-78
2023/07/22 00:03:00;;;;;;;32.37;21.67;;;24.90;47.10;;;;;;5089351;28;20439;-78
2023/07/22 00:05:28;;;;;;;29.90;20.60;;;24.90;47.00;;;;;;5088666;28;20435;-78
2023/07/22 00:07:58;;;;;;;31.97;22.53;;;24.90;46.90;;;;;;5086591;28;20997;-78
2023/07/22 00:10:26;;;;;;;27.87;20.87;;;24.90;47.00;;;;;;5091790;28;20462;-78
2023/07/22 00:12:54;;;;;;;29.03;20.93;;;24.90;47.60;;;;;;5082135;28;20499;-78
2023/07/22 00:15:24;;;;;;;30.60;21.60;;;24.80;46.80;;;;;;5095777;28;20435;-78
2023/07/22 00:17:52;;;;;;;30.77;22.53;;;24.90;46.90;;;;;;5092565;28;20411;-78
2023/07/22 00:20:20;;;;;;;31.00;22.07;;;24.90;46.80;;;;;;5085169;28;20416;-78
2023/07/22 00:22:50;;;;;;;29.50;21.90;;;24.80;46.80;;;;;;5079441;28;21038;-78
2023/07/22 00:25:19;;;;;;;30.60;22.73;;;24.80;46.70;;;;;;5087912;28;20479;-78
2023/07/22 00:27:48;;;;;;;29.57;22.23;;;24.80;46.70;;;;;;5087760;28;20466;-78
2023/07/22 00:30:17;;;;;;;32.80;22.53;;;24.80;46.70;;;;;;5085730;28;20517;-78
2023/07/22 00:32:45;;;;;;;32.43;23.43;;;24.80;46.70;;;;;;5086498;28;20409;-78
2023/07/22 00:35:14;;;;;;;32.60;23.43;;;24.80;46.60;;;;;;5078777;28;20444;-78
2023/07/22 00:37:42;;;;;;;32.17;24.13;;;24.80;46.50;;;;;;5090611;28;20407;-81
2023/07/22 00:40:12;;;;;;;31.60;22.67;;;24.70;46.60;;;;;;5083020;28;20545;-78
2023/07/22 00:42:43;;;;;;;30.77;22.47;;;24.70;46.60;;;;;;5078800;28;20474;-78
2023/07/22 00:45:11;;;;;;;30.00;22.37;;;24.70;46.50;;;;;;5093495;28;20443;-78
2023/07/22 00:47:39;;;;;;;29.30;21.07;;;24.70;46.50;;;;;;5098534;28;20437;-78
2023/07/22 00:50:08;;;;;;;30.07;21.80;;;24.70;46.50;;;;;;5099537;28;20441;-78
2023/07/22 00:52:36;;;;;;;28.10;22.00;;;24.70;46.40;;;;;;5087129;28;20557;-78
2023/07/22 00:55:05;;;;;;;28.43;21.70;;;24.60;46.40;;;;;;5092378;28;20508;-79
2023/07/22 00:57:34;;;;;;;31.67;20.87;;;24.70;46.40;;;;;;5078345;28;20507;-78
2023/07/22 01:00:07;;;;;;;28.17;20.53;;;24.60;46.20;;;;;;5079076;28;20466;-78
2023/07/22 01:02:35;;;;;;;26.00;19.27;;;24.60;46.40;;;;;;5078526;28;20521;-78
2023/07/22 01:05:04;;;;;;;25.50;19.27;;;24.60;46.20;;;;;;5084877;28;20452;-78
2023/07/22 01:07:32;;;;;;;27.40;19.80;;;24.60;46.30;;;;;;5099860;28;20433;-78
2023/07/22 01:09:59;;;;;;;28.63;19.93;;;24.50;46.20;;;;;;5096909;28;20483;-78
2023/07/22 01:12:27;;;;;;;26.37;20.13;;;24.60;46.30;;;;;;5080482;28;20440;-78
2023/07/22 01:14:55;;;;;;;26.63;19.10;;;24.50;46.20;;;;;;5086957;28;20476;-78
2023/07/22 01:17:24;;;;;;;28.00;20.50;;;24.60;46.30;;;;;;5086948;28;20449;-78
2023/07/22 01:19:55;;;;;;;24.00;18.73;;;24.50;46.10;;;;;;5078761;28;20484;-78
2023/07/22 01:22:22;;;;;;;24.63;18.30;;;24.50;46.10;;;;;;5096946;28;21022;-78
2023/07/22 01:24:52;;;;;;;24.00;18.00;;;24.50;46.00;;;;;;5075788;28;20474;-78
2023/07/22 01:27:20;;;;;;;22.93;17.13;;;24.50;46.10;;;;;;5087819;28;20440;-78
2023/07/22 01:29:51;;;;;;;24.03;17.50;;;24.50;46.10;;;;;;5088601;28;20477;-80
2023/07/22 01:32:19;;;;;;;24.00;17.00;;;24.40;46.00;;;;;;5081989;28;20459;-78
2023/07/22 01:34:48;;;;;;;24.40;17.63;;;24.40;46.00;;;;;;5078615;28;20466;-78
2023/07/22 01:37:15;;;;;;;24.77;17.83;;;24.40;46.00;;;;;;5077952;28;20993;-78
2023/07/22 01:39:44;;;;;;;23.10;17.43;;;24.40;46.00;;;;;;5077673;28;20451;-78
2023/07/22 01:42:13;;;;;;;24.90;17.27;;;24.40;46.00;;;;;;5081254;28;20427;-79
2023/07/22 01:44:41;;;;;;;21.97;16.33;;;24.40;46.00;;;;;;5086928;28;20932;-78
2023/07/22 01:47:09;;;;;;;22.80;16.57;;;24.40;46.00;;;;;;5096899;28;20468;-78
2023/07/22 01:49:37;;;;;;;18.37;15.20;;;24.40;46.00;;;;;;5096514;28;20497;-78
2023/07/22 01:52:05;;;;;;;19.37;15.30;;;24.30;45.80;;;;;;5092228;28;20488;-78
2023/07/22 01:54:33;;;;;;;23.20;16.67;;;24.30;45.90;;;;;;5096718;28;20408;-78
2023/07/22 01:57:01;;;;;;;20.70;15.40;;;24.30;45.90;;;;;;5097430;28;20419;-78
2023/07/22 01:59:30;;;;;;;19.80;15.50;;;24.30;45.90;;;;;;5097946;28;20463;-78
2023/07/22 02:01:59;;;;;;;17.67;14.50;;;24.30;46.00;;;;;;5086333;28;20549;-78
2023/07/22 02:04:27;;;;;;;19.23;14.80;;;24.30;45.90;;;;;;5076822;28;20477;-78
2023/07/22 02:06:54;;;;;;;21.27;15.07;;;24.20;45.80;;;;;;5089472;28;20436;-78
2023/07/22 02:09:22;;;;;;;18.07;14.07;;;24.20;45.90;;;;;;5097340;28;20984;-80
2023/07/22 02:11:50;;;;;;;17.33;13.67;;;24.20;45.80;;;;;;5093455;28;20499;-78
2023/07/22 02:14:18;;;;;;;18.17;13.83;;;24.20;45.80;;;;;;5097234;28;20491;-78
2023/07/22 02:16:48;;;;;;;20.80;14.70;;;24.10;45.80;;;;;;5078555;28;20508;-79
2023/07/22 02:19:16;;;;;;;20.03;14.57;;;24.10;45.80;;;;;;5087380;28;20800;-79
2023/07/22 02:21:44;;;;;;;16.90;13.40;;;24.10;45.80;;;;;;5078276;28;20518;-78
2023/07/22 02:24:12;;;;;;;18.50;13.20;;;24.10;45.90;;;;;;5092308;28;20463;-79
2023/07/22 02:26:40;;;;;;;17.80;13.13;;;24.10;45.80;;;;;;5096001;28;20460;-79
2023/07/22 02:29:08;;;;;;;18.17;12.90;;;24.10;45.80;;;;;;5083114;28;20504;-79
2023/07/22 02:31:36;;;;;;;17.00;12.90;;;24.10;45.80;;;;;;5095627;28;20443;-79
2023/07/22 02:34:05;;;;;;;18.60;13.30;;;24.10;45.80;;;;;;5077128;28;20453;-78
2023/07/22 02:36:33;;;;;;;16.17;12.13;;;24.00;45.80;;;;;;5088924;22;20518;-78
2023/07/22 02:39:03;;;;;;;17.13;12.40;;;24.00;45.70;;;;;;5042456;28;20409;-78
2023/07/22 02:41:31;;;;;;;17.93;12.87;;;24.00;45.60;;;;;;5050506;28;20467;-78
2023/07/22 02:43:59;;;;;;;14.93;11.13;;;24.00;45.70;;;;;;5030134;28;20985;-75
2023/07/22 02:46:26;;;;;;;18.37;12.60;;;23.90;45.70;;;;;;5035687;28;20463;-75
2023/07/22 02:48:55;;;;;;;17.27;12.10;;;23.90;45.70;;;;;;5019000;28;20437;-75
2023/07/22 02:51:24;;;;;;;14.03;11.37;;;23.90;45.70;;;;;;5016469;28;20445;-75
2023/07/22 02:53:52;;;;;;;13.00;10.53;;;23.90;45.50;;;;;;5026036;28;20517;-75
2023/07/22 02:56:20;;;;;;;15.23;11.10;;;23.90;45.60;;;;;;5028817;28;20566;-75
2023/07/22 02:58:48;;;;;;;16.40;11.20;;;23.90;45.70;;;;;;5023543;28;20447;-75
2023/07/22 03:01:17;;;;;;;14.83;11.00;;;23.90;45.70;;;;;;5026628;28;20455;-75
2023/07/22 03:03:45;;;;;;;13.70;10.83;;;23.90;45.60;;;;;;5033576;28;20447;-77
2023/07/22 03:06:13;;;;;;;12.27;10.30;;;23.80;45.60;;;;;;5031420;28;20430;-78
2023/07/22 03:08:42;;;;;;;12.00;10.23;;;23.80;45.60;;;;;;5033522;28;20871;-78
2023/07/22 03:11:10;;;;;;;13.83;10.57;;;23.80;45.50;;;;;;5032295;28;21030;-78
2023/07/22 03:13:38;;;;;;;11.83;9.93;;;23.80;45.40;;;;;;5016576;28;20468;-79
2023/07/22 03:16:05;;;;;;;13.13;9.87;;;23.80;45.50;;;;;;5013975;28;20547;-78
2023/07/22 03:18:34;;;;;;;11.77;9.87;;;23.70;45.60;;;;;;5013701;28;20503;-78
2023/07/22 03:21:01;;;;;;;12.07;10.17;;;23.80;45.60;;;;;;5013841;28;20472;-78
2023/07/22 03:23:29;;;;;;;11.80;9.70;;;23.70;45.40;;;;;;5014054;28;20440;-78
2023/07/22 03:25:59;;;;;;;11.17;8.90;;;23.70;45.50;;;;;;5027575;28;20514;-78
2023/07/22 03:28:27;;;;;;;11.97;9.47;;;23.70;45.40;;;;;;5034976;28;20486;-77
2023/07/22 03:30:55;;;;;;;10.30;9.00;;;23.70;45.60;;;;;;5029485;28;20570;-77
2023/07/22 03:33:23;;;;;;;13.20;10.13;;;23.70;45.50;;;;;;5016384;28;20415;-77
2023/07/22 03:35:50;;;;;;;11.20;9.00;;;23.70;45.70;;;;;;5013730;28;20466;-78
2023/07/22 03:38:18;;;;;;;10.77;8.93;;;23.70;45.50;;;;;;5021529;28;20499;-78
2023/07/22 03:40:47;;;;;;;10.97;9.00;;;23.70;45.50;;;;;;5027487;28;20434;-76
2023/07/22 03:43:17;;;;;;;11.50;8.90;;;23.60;45.40;;;;;;5032889;28;20479;-78
2023/07/22 03:45:45;;;;;;;10.90;8.77;;;23.60;45.50;;;;;;5032763;28;20507;-78
2023/07/22 03:48:13;;;;;;;13.03;9.33;;;23.60;45.60;;;;;;5032941;28;20429;-78
2023/07/22 03:50:41;;;;;;;10.80;8.47;;;23.60;45.50;;;;;;5032240;28;20440;-78
2023/07/22 03:53:09;;;;;;;12.37;9.13;;;23.60;45.60;;;;;;5013184;28;20471;-78
2023/07/22 03:55:37;;;;;;;11.60;9.17;;;23.60;45.50;;;;;;5013442;28;20548;-78
2023/07/22 03:58:05;;;;;;;11.97;9.30;;;23.50;45.40;;;;;;5032523;28;20471;-78
2023/07/22 04:00:34;;;;;;;13.13;9.93;;;23.50;45.50;;;;;;5032796;28;20440;-78
2023/07/22 04:03:03;;;;;;;13.87;10.67;;;23.50;45.40;;;;;;5032664;28;20450;-78
2023/07/22 04:05:31;;;;;;;11.80;9.50;;;23.50;45.50;;;;;;5027340;28;20530;-78
2023/07/22 04:07:59;;;;;;;13.57;10.27;;;23.50;45.40;;;;;;5013161;28;20470;-78
2023/07/22 04:10:27;;;;;;;13.50;9.77;;;23.50;45.50;;;;;;5012797;28;21006;-78
2023/07/22 04:12:55;;;;;;;12.00;9.63;;;23.50;45.30;;;;;;5018422;28;20499;-79
2023/07/22 04:15:23;;;;;;;12.70;9.47;;;23.50;45.60;;;;;;5032519;28;20542;-78
2023/07/22 04:17:52;;;;;;;15.87;9.90;;;23.50;45.50;;;;;;5032535;28;20475;-78
2023/07/22 04:20:20;;;;;;;11.50;9.67;;;23.50;45.30;;;;;;5032676;28;20441;-78
2023/07/22 04:22:47;;;;;;;11.90;9.33;;;23.50;45.40;;;;;;5032473;28;20414;-78
2023/07/22 04:25:16;;;;;;;12.07;9.90;;;23.50;45.40;;;;;;5032744;28;20468;-77
2023/07/22 04:27:44;;;;;;;11.80;8.63;;;23.50;45.40;;;;;;5032646;28;20470;-78
2023/07/22 04:30:19;;;;;;;13.83;9.27;;;23.50;45.40;;;;;;5021395;28;20535;-78
2023/07/22 04:32:48;;;;;;;11.50;9.03;;;23.50;45.30;;;;;;5031892;28;20525;-78
2023/07/22 04:35:17;;;;;;;10.27;8.67;;;23.50;45.20;;;;;;5032128;28;20436;-78
2023/07/22 04:37:45;;;;;;;10.00;8.27;;;23.40;45.30;;;;;;5015366;28;20569;-78
2023/07/22 04:40:16;;;;;;;10.60;8.60;;;23.50;45.30;;;;;;5025371;28;20570;-78
2023/07/22 04:42:44;;;;;;;11.60;9.00;;;23.50;45.20;;;;;;5032012;28;20442;-78
2023/07/22 04:45:12;;;;;;;11.90;8.40;;;23.40;45.30;;;;;;5032162;28;20504;-78
2023/07/22 04:47:41;;;;;;;9.43;8.17;;;23.40;45.10;;;;;;5028895;28;20562;-77
2023/07/22 04:50:09;;;;;;;11.67;8.90;;;23.40;45.20;;;;;;5032217;28;20453;-78
2023/07/22 04:52:39;;;;;;;10.97;8.20;;;23.40;45.10;;;;;;5032136;28;20442;-78
2023/07/22 04:55:09;;;;;;;9.60;7.80;;;23.40;45.20;;;;;;5032201;28;20456;-79
2023/07/22 04:57:38;;;;;;;9.03;7.80;;;23.50;45.20;;;;;;5032114;28;20824;-78
2023/07/22 05:00:09;;;;;;;11.90;8.40;;;23.50;45.20;;;;;;5032318;28;20508;-78
2023/07/22 05:02:36;;;;;;;9.70;7.90;;;23.50;45.10;;;;;;5027836;28;20432;-78
2023/07/22 05:05:05;;;;;;;10.63;8.00;;;23.50;45.40;;;;;;5030377;28;20487;-78
2023/07/22 05:07:33;;;;;;;9.20;7.57;;;23.50;44.90;;;;;;5026669;28;20480;-77
2023/07/22 05:10:02;;;;;;;10.93;8.10;;;23.50;45.20;;;;;;5030070;28;20527;-77
2023/07/22 05:12:29;;;;;;;10.20;8.30;;;23.50;45.10;;;;;;5011927;28;20519;-77
2023/07/22 05:14:57;;;;;;;10.90;8.50;;;23.50;45.10;;;;;;5011315;28;20522;-78
2023/07/22 05:17:29;;;;;;;9.80;8.07;;;23.60;45.10;;;;;;5017186;28;20463;-78
2023/07/22 05:19:57;;;;;;;8.47;7.17;;;23.60;45.10;;;;;;5021690;28;20452;-78
2023/07/22 05:22:25;;;;;;;8.90;7.53;;;23.60;45.20;;;;;;5020046;28;20495;-78
2023/07/22 05:24:53;;;;;;;9.30;7.30;;;23.60;45.10;;;;;;5029884;28;20521;-78
2023/07/22 05:27:22;;;;;;;8.57;6.90;;;23.70;45.30;;;;;;5024599;28;20521;-77
2023/07/22 05:29:51;;;;;;;11.30;7.97;;;23.70;45.20;;;;;;5031162;28;20446;-78
2023/07/22 05:32:19;;;;;;;8.33;6.93;;;23.80;45.20;;;;;;5031140;28;20458;-78
2023/07/22 05:35:01;;;;;;;9.10;6.90;;;23.80;45.00;;;;;;5031187;28;20418;-77
2023/07/22 05:37:29;;;;;;;9.27;7.10;;;23.80;45.10;;;;;;5031185;28;20471;-77
2023/07/22 05:39:57;;;;;;;11.73;6.83;;;23.80;44.90;;;;;;5029718;28;20430;-78
2023/07/22 05:42:27;;;;;;;8.30;6.90;;;23.80;45.10;;;;;;5030689;28;20453;-78
2023/07/22 05:44:55;;;;;;;8.20;6.80;;;23.80;45.60;;;;;;5030790;28;20895;-77
2023/07/22 05:47:24;;;;;;;6.93;6.23;;;23.80;45.00;;;;;;5029198;28;20510;-78
2023/07/22 05:49:51;;;;;;;8.17;6.90;;;23.80;45.00;;;;;;5022370;28;20444;-78
2023/07/22 05:52:19;;;;;;;8.70;6.90;;;23.80;44.90;;;;;;5031024;28;20497;-78
2023/07/22 05:54:47;;;;;;;7.10;6.40;;;23.90;45.10;;;;;;5030261;28;20474;-78
2023/07/22 05:57:15;;;;;;;6.90;6.20;;;23.90;44.90;;;;;;5022278;28;20492;-77
2023/07/22 05:59:44;;;;;;;8.17;6.20;;;23.90;45.00;;;;;;5010995;28;20411;-77
2023/07/22 06:02:15;;;;;;;7.20;6.50;;;24.00;45.10;;;;;;5010998;28;20475;-78
2023/07/22 06:04:42;;;;;;;7.40;6.47;;;24.00;44.90;;;;;;5011917;28;20970;-78
2023/07/22 06:07:10;;;;;;;6.67;6.00;;;24.00;45.10;;;;;;5029462;28;20459;-77
2023/07/22 06:09:38;;;;;;;6.73;6.07;;;24.10;45.70;;;;;;5019243;28;20526;-75
2023/07/22 06:12:07;;;;;;;8.43;6.07;;;24.10;45.00;;;;;;5020511;28;20515;-75
2023/07/22 06:14:34;;;;;;;6.43;5.80;;;24.10;44.90;;;;;;5029554;28;20479;-75
2023/07/22 06:17:04;;;;;;;8.50;6.10;;;24.20;45.00;;;;;;5022315;28;20538;-75
2023/07/22 06:19:32;;;;;;;6.50;5.90;;;24.20;45.00;;;;;;5030421;28;20473;-75
2023/07/22 06:22:00;;;;;;;6.37;5.67;;;24.30;45.10;;;;;;5025501;28;20483;-75
2023/07/22 06:24:28;;;;;;;5.63;5.03;;;24.30;44.90;;;;;;5030408;28;20848;-75
2023/07/22 06:26:56;;;;;;;5.50;4.93;;;24.30;45.00;;;;;;5022743;28;20450;-75
2023/07/22 06:29:24;;;;;;;6.93;5.33;;;24.40;45.20;;;;;;5026425;28;20533;-75
2023/07/22 06:31:52;;;;;;;7.83;6.23;;;24.30;45.20;;;;;;5017326;28;20430;-75
2023/07/22 06:34:22;;;;;;;8.07;5.57;;;24.40;45.20;;;;;;5014868;28;20415;-76
2023/07/22 06:36:49;;;;;;;7.47;5.60;;;24.40;45.10;;;;;;5014542;28;20545;-75
2023/07/22 06:39:18;;;;;;;6.50;5.83;;;24.50;45.20;;;;;;5015571;28;20509;-74
2023/07/22 06:41:46;;;;;;;7.50;5.70;;;24.50;45.30;;;;;;5016403;28;20422;-74
2023/07/22 06:44:14;;;;;;;5.80;5.23;;;24.60;45.10;;;;;;5014323;28;20447;-75
2023/07/22 06:46:44;;;;;;;6.20;4.90;;;24.60;45.30;;;;;;5023184;28;20532;-76
2023/07/22 06:49:12;;;;;;;5.80;5.23;;;24.60;45.00;;;;;;5034283;28;20819;-74
2023/07/22 06:51:41;;;;;;;6.77;5.17;;;24.70;45.20;;;;;;5020028;28;20483;-76
2023/07/22 06:54:09;;;;;;;5.33;4.83;;;24.70;45.10;;;;;;5024018;28;20522;-76
2023/07/22 06:56:37;;;;;;;5.77;4.90;;;24.70;45.20;;;;;;5033868;28;20538;-75
2023/07/22 06:59:05;;;;;;;5.77;5.27;;;24.80;45.40;;;;;;5033891;28;20542;-76
2023/07/22 07:01:33;;;;;;;5.93;5.17;;;24.80;45.20;;;;;;5033787;28;20471;-76
2023/07/22 07:04:01;;;;;;;5.60;4.93;;;24.80;45.20;;;;;;5033412;28;20428;-77
2023/07/22 07:06:29;;;;;;;5.77;5.17;;;24.90;45.30;;;;;;5018073;28;20521;-77
2023/07/22 07:09:01;;;;;;;6.53;5.20;;;25.00;45.10;;;;;;5025460;28;20445;-77
2023/07/22 07:11:29;;;;;;;6.53;5.93;;;25.00;45.20;;;;;;5014339;28;20502;-77
2023/07/22 07:13:57;;;;;;;6.97;6.00;;;25.10;45.20;;;;;;5028770;28;20414;-77
2023/07/22 07:16:26;;;;;;;6.60;5.73;;;25.20;45.20;;;;;;5021195;28;20484;-77
2023/07/22 07:18:55;;;;;;;8.10;6.43;;;25.30;45.10;;;;;;5013985;28;20411;-76
2023/07/22 07:21:22;;;;;;;7.10;6.40;;;25.30;45.00;;;;;;5021022;28;20477;-77
2023/07/22 07:23:50;;;;;;;8.73;6.00;;;25.30;45.00;;;;;;5033509;28;20471;-77
2023/07/22 07:26:21;;;;;;;6.93;6.33;;;25.40;45.10;;;;;;5032247;28;20446;-77
2023/07/22 07:28:50;;;;;;;7.47;6.73;;;25.50;45.00;;;;;;5028654;28;20432;-76
2023/07/22 07:31:19;;;;;;;6.83;6.00;;;25.50;44.70;;;;;;5033294;28;20454;-76
2023/07/22 07:33:46;;;;;;;7.33;6.30;;;25.60;45.10;;;;;;5030100;28;20432;-76
2023/07/22 07:36:15;;;;;;;6.70;6.10;;;25.60;45.00;;;;;;5035909;28;20489;-77
2023/07/22 07:38:42;;;;;;;6.50;5.70;;;25.70;44.90;;;;;;5035672;28;20451;-77
2023/07/22 07:41:11;;;;;;;6.20;5.60;;;25.70;45.10;;;;;;5031548;28;20452;-77
2023/07/22 07:43:41;;;;;;;7.60;6.70;;;25.80;45.00;;;;;;5033118;28;20505;-76
2023/07/22 07:46:20;;;;;;;6.50;5.83;;;25.90;45.00;;;;;;5031509;28;20550;-78
2023/07/22 07:48:48;;;;;;;6.30;5.70;;;26.00;45.10;;;;;;5027617;28;20414;-77
2023/07/22 07:51:16;;;;;;;7.40;6.27;;;26.10;45.00;;;;;;5033174;28;20449;-77
2023/07/22 07:53:46;;;;;;;6.07;5.47;;;26.20;45.00;;;;;;5029747;28;20426;-77
2023/07/22 07:56:14;;;;;;;6.23;5.53;;;26.40;44.80;;;;;;5032449;28;20448;-77
2023/07/22 07:58:44;;;;;;;6.20;5.70;;;26.50;44.80;;;;;;5031525;28;20465;-78
2023/07/22 08:01:12;;;;;;;5.60;5.10;;;26.60;44.60;;;;;;5021028;28;20862;-77
2023/07/22 08:03:41;;;;;;;6.83;5.43;;;26.70;44.40;;;;;;5032689;28;20418;-77
2023/07/22 08:06:10;;;;;;;6.30;5.70;;;26.70;44.40;;;;;;5032703;28;20464;-77
2023/07/22 08:08:38;;;;;;;10.20;5.60;;;26.70;44.30;;;;;;5032240;28;20442;-77
2023/07/22 08:11:08;;;;;;;5.60;5.10;;;26.80;44.50;;;;;;5032395;28;20453;-77
2023/07/22 08:13:36;;;;;;;5.63;5.10;;;26.90;44.50;;;;;;5021370;28;20426;-77
2023/07/22 08:16:07;;;;;;;7.27;5.03;;;27.00;44.50;;;;;;5031061;28;20479;-77
2023/07/22 08:18:35;;;;;;;5.43;5.03;;;27.10;44.30;;;;;;5031324;28;20427;-77
2023/07/22 08:21:03;;;;;;;5.37;4.87;;;27.30;44.40;;;;;;5032129;28;20509;-77
2023/07/22 08:23:32;;;;;;;5.20;4.70;;;27.40;44.00;;;;;;5023843;28;20569;-77
2023/07/22 08:25:59;;;;;;;5.63;5.13;;;27.60;44.00;;;;;;5029125;28;20429;-77
2023/07/22 08:28:27;;;;;;;6.20;5.60;;;27.70;44.00;;;;;;5030526;28;20533;-77
2023/07/22 08:30:55;;;;;;;5.97;5.43;;;27.70;43.80;;;;;;5031153;28;20511;-77
2023/07/22 08:33:25;;;;;;;6.30;5.70;;;27.80;43.80;;;;;;5027801;28;20434;-77
2023/07/22 08:36:08;;;;;;;6.20;5.60;;;27.90;43.80;;;;;;5061952;22;20448;-82
2023/07/22 08:38:35;;;;;;;5.73;5.13;;;28.00;43.60;;;;;;5066907;28;20404;-82
2023/07/22 08:41:04;;;;;;;5.37;4.90;;;28.10;43.40;;;;;;5060610;28;20431;-82
2023/07/22 08:43:32;;;;;;;6.20;5.60;;;28.20;43.30;;;;;;5060677;28;20440;-82
2023/07/22 08:46:00;;;;;;;5.93;5.33;;;28.20;43.20;;;;;;5068974;28;20485;-82
2023/07/22 08:48:33;;;;;;;7.57;4.90;;;28.20;43.20;;;;;;5060920;28;20438;-82
2023/07/22 08:51:05;;;;;;;5.77;5.27;;;28.30;43.20;;;;;;5059146;28;20447;-81
2023/07/22 08:53:34;;;;;;;5.90;5.40;;;28.30;43.20;;;;;;5060836;28;20467;-81
2023/07/22 08:56:04;;;;;;;5.57;5.07;;;28.30;43.10;;;;;;5060156;28;20437;-82
2023/07/22 08:58:34;;;;;;;6.30;5.70;;;28.50;43.10;;;;;;5056172;28;20439;-82
2023/07/22 09:01:06;;;;;;;6.07;5.47;;;28.60;43.10;;;;;;5061648;28;20474;-81
2023/07/22 09:03:37;;;;;;;5.37;4.97;;;28.70;43.00;;;;;;5063066;28;20417;-81
2023/07/22 09:06:06;;;;;;;7.33;6.07;;;28.70;42.90;;;;;;5066308;28;20424;-82
2023/07/22 09:08:38;;;;;;;6.10;5.50;;;28.80;42.90;;;;;;5060789;28;20501;-82
2023/07/22 09:11:07;;;;;;;6.63;5.90;;;28.80;42.80;;;;;;5065198;28;20504;-80
2023/07/22 09:13:40;;;;;;;5.83;5.33;;;28.90;42.90;;;;;;5063857;28;20788;-80
2023/07/22 09:16:09;;;;;;;5.90;5.40;;;29.00;42.80;;;;;;5062463;28;20489;-80
2023/07/22 09:18:40;;;;;;;5.57;5.00;;;29.20;42.70;;;;;;5059658;28;20419;-82
2023/07/22 09:21:08;;;;;;;5.53;5.13;;;29.30;42.50;;;;;;5062255;28;20442;-81
2023/07/22 09:23:38;;;;;;;6.20;5.57;;;29.50;42.50;;;;;;5049048;28;20915;-81
2023/07/22 09:26:10;;;;;;;5.93;5.30;;;29.60;42.60;;;;;;5053306;28;20885;-78
2023/07/22 09:28:54;;;;;;;5.50;5.07;;;29.90;42.40;;;;;;5057244;28;20509;-81
2023/07/22 09:31:23;;;;;;;6.00;5.50;;;30.20;42.10;;;;;;5053066;28;20455;-80
2023/07/22 09:33:53;;;;;;;5.80;5.40;;;30.20;41.60;;;;;;5049909;28;20458;-81
2023/07/22 09:36:21;;;;;;;5.97;5.37;;;30.20;41.50;;;;;;5056084;28;20863;-81
2023/07/22 09:39:00;;;;;;;5.43;4.93;;;30.10;41.60;;;;;;5055686;28;20465;-80
2023/07/22 09:41:28;;;;;;;6.10;5.00;;;30.20;41.90;;;;;;5057042;28;20404;-81
2023/07/22 09:43:57;;;;;;;5.50;5.00;;;30.20;41.70;;;;;;5054542;28;20466;-81
2023/07/22 09:46:26;;;;;;;5.50;5.10;;;30.20;41.60;;;;;;5054729;28;21026;-81
2023/07/22 09:48:57;;;;;;;5.37;4.97;;;30.20;41.60;;;;;;5053200;28;20478;-81
2023/07/22 09:51:26;;;;;;;4.90;4.60;;;30.20;41.60;;;;;;5054120;28;20446;-81
2023/07/22 09:54:00;;;;;;;6.00;5.50;;;30.30;41.60;;;;;;5050600;28;20515;-83
2023/07/22 09:56:28;;;;;;;8.13;5.30;;;30.30;41.60;;;;;;5051539;28;20557;-83
2023/07/22 09:58:57;;;;;;;6.20;5.57;;;30.20;41.40;;;;;;5056417;28;20451;-83
2023/07/22 10:01:25;;;;;;;5.43;4.93;;;30.20;41.60;;;;;;5055987;28;20446;-83
2023/07/22 10:03:55;;;;;;;5.40;5.00;;;30.20;41.60;;;;;;5061953;28;20492;-81
2023/07/22 10:06:29;;;;;;;5.43;5.03;;;30.20;41.60;;;;;;5053886;28;20442;-80
2023/07/22 10:08:57;;;;;;;4.93;4.53;;;30.20;41.40;;;;;;5054321;28;20812;-80
2023/07/22 10:11:26;;;;;;;5.47;5.00;;;30.30;41.40;;;;;;5066316;28;20455;-78
2023/07/22 10:13:54;;;;;;;4.93;4.57;;;30.50;41.40;;;;;;5066894;28;20458;-79
2023/07/22 10:16:24;;;;;;;5.43;4.93;;;30.60;41.30;;;;;;5071657;28;20880;-82
2023/07/22 10:18:53;;;;;;;5.47;5.00;;;30.90;41.20;;;;;;5079702;28;20444;-81
2023/07/22 10:21:26;;;;;;;5.80;5.20;;;31.00;40.90;;;;;;5073438;28;20442;-81
2023/07/22 10:23:55;;;;;;;5.00;4.60;;;31.10;40.70;;;;;;5067052;28;20457;-81
2023/07/22 10:26:24;;;;;;;5.03;4.70;;;31.00;40.60;;;;;;5075968;28;20542;-82
2023/07/22 10:29:12;;;;;;;5.13;4.70;;;31.00;40.60;;;;;;5066777;28;20486;-81
2023/07/22 10:35:38;;;;;;;4.50;4.10;;;30.90;40.80;;;;;;5003776;28;20477;-81
2023/07/22 10:38:10;;;;;;;4.90;4.60;;;30.90;40.70;;;;;;5058435;28;20474;-85
2023/07/22 10:40:45;;;;;;;5.10;4.70;;;31.00;40.60;;;;;;5058660;28;20454;-80
2023/07/22 10:43:13;;;;;;;4.20;3.90;;;30.90;40.40;;;;;;5066105;28;20454;-81
2023/07/22 10:45:42;;;;;;;4.30;4.00;;;30.80;40.60;;;;;;5058548;28;20482;-80
2023/07/22 10:48:11;;;;;;;4.37;4.07;;;30.70;40.60;;;;;;5052846;28;20501;-81
2023/07/22 10:50:44;;;;;;;4.00;3.80;;;30.70;40.70;;;;;;5058146;28;20450;-76
2023/07/22 10:53:14;;;;;;;4.60;4.30;;;30.60;40.70;;;;;;5063625;28;20459;-80
2023/07/22 10:56:07;;;;;;;4.60;4.10;;;30.40;40.80;;;;;;5054778;28;20446;-80
2023/07/22 10:58:56;;;;;;;4.63;4.23;;;30.30;41.10;;;;;;5052161;28;20421;-80
2023/07/22 11:01:25;;;;;;;4.77;4.40;;;30.20;41.10;;;;;;5057570;28;20941;-80
2023/07/22 11:04:10;;;;;;;5.43;4.17;;;30.20;41.20;;;;;;5057788;28;20496;-80
2023/07/22 11:06:39;;;;;;;4.43;4.13;;;30.10;41.40;;;;;;5055357;28;20462;-81
2023/07/22 11:09:08;;;;;;;5.00;4.50;;;30.10;41.50;;;;;;5058675;28;20497;-81
2023/07/22 11:11:38;;;;;;;4.93;4.53;;;30.00;41.50;;;;;;5058531;28;20546;-81
2023/07/22 11:14:16;;;;;;;4.30;4.00;;;29.90;41.40;;;;;;5052039;28;20421;-80
2023/07/22 11:16:45;;;;;;;4.97;4.10;;;29.90;41.60;;;;;;5056078;28;20497;-80
2023/07/22 11:19:13;;;;;;;4.60;4.30;;;29.80;41.60;;;;;;5053817;28;20427;-80
2023/07/22 11:21:41;;;;;;;5.03;4.63;;;29.80;41.60;;;;;;5051906;28;20513;-80
2023/07/22 11:24:10;;;;;;;4.50;4.20;;;29.70;41.80;;;;;;5057866;28;20458;-77
2023/07/22 11:26:39;;;;;;;4.07;3.60;;;29.60;41.80;;;;;;5060714;28;20425;-79
2023/07/22 11:29:08;;;;;;;5.20;4.70;;;29.50;41.90;;;;;;5069876;28;20518;-79
2023/07/22 11:31:37;;;;;;;5.20;4.70;;;29.50;42.10;;;;;;5071358;28;20416;-79
2023/07/22 11:34:05;;;;;;;5.27;4.70;;;29.30;42.00;;;;;;5068417;28;20420;-79
2023/07/22 11:36:35;;;;;;;5.00;4.50;;;29.20;42.30;;;;;;5059589;28;20589;-79
2023/07/22 11:39:03;;;;;;;5.10;4.70;;;29.20;42.40;;;;;;5057466;28;20443;-80
2023/07/22 11:41:32;;;;;;;4.97;4.57;;;29.10;42.50;;;;;;5066972;28;20443;-80
2023/07/22 11:44:00;;;;;;;4.77;4.43;;;29.10;42.60;;;;;;5064189;28;20526;-79
2023/07/22 11:46:29;;;;;;;4.10;3.80;;;29.10;42.70;;;;;;5059153;28;20494;-79
2023/07/22 11:48:57;;;;;;;5.60;5.10;;;29.00;42.60;;;;;;5060501;28;20498;-79
2023/07/22 11:51:25;;;;;;;5.43;4.83;;;29.00;42.60;;;;;;5061482;28;20470;-78
2023/07/22 11:53:54;;;;;;;4.80;4.40;;;28.90;42.70;;;;;;5063864;28;20453;-79
2023/07/22 11:56:22;;;;;;;5.50;5.10;;;28.80;42.80;;;;;;5064068;28;20559;-78
2023/07/22 11:58:52;;;;;;;5.20;4.73;;;28.80;43.00;;;;;;5066923;28;20537;-78
2023/07/22 12:01:20;;;;;;;5.30;4.80;;;28.80;43.00;;;;;;5068168;28;20797;-79
2023/07/22 12:03:47;;;;;;;5.07;4.67;;;28.70;43.20;;;;;;5071575;28;20446;-78
2023/07/22 12:06:16;;;;;;;6.13;5.20;;;28.70;43.20;;;;;;5066165;28;20462;-79
2023/07/22 12:08:45;;;;;;;4.90;4.60;;;28.70;43.40;;;;;;5067698;28;20484;-79
2023/07/22 12:11:19;;;;;;;5.40;5.00;;;28.60;43.40;;;;;;5067696;28;20884;-79
2023/07/22 12:13:50;;;;;;;5.30;4.90;;;28.60;43.60;;;;;;5067413;28;20420;-79
2023/07/22 12:16:24;;;;;;;6.93;5.73;;;28.60;43.60;;;;;;5063356;28;20532;-79
2023/07/22 12:18:56;;;;;;;6.00;5.40;;;28.60;43.70;;;;;;5066398;28;20450;-78
2023/07/22 12:21:24;;;;;;;6.10;5.17;;;28.50;43.70;;;;;;5056316;28;20460;-78
2023/07/22 12:23:54;;;;;;;6.00;5.47;;;28.50;43.80;;;;;;5058771;28;20452;-78
2023/07/22 12:26:22;;;;;;;5.20;4.80;;;28.50;43.80;;;;;;5060464;28;20531;-79
2023/07/22 12:28:50;;;;;;;5.80;5.30;;;28.50;43.80;;;;;;5059848;28;20529;-78
2023/07/22 12:31:18;;;;;;;5.33;4.93;;;28.50;43.90;;;;;;5055919;28;20523;-78
2023/07/22 12:33:48;;;;;;;5.93;5.33;;;28.40;44.00;;;;;;5062369;28;20826;-78
2023/07/22 12:36:16;;;;;;;5.10;4.70;;;28.40;44.00;;;;;;5064123;28;20463;-78
2023/07/22 12:38:44;;;;;;;6.67;5.80;;;28.40;44.00;;;;;;5060591;28;20790;-78
2023/07/22 12:41:11;;;;;;;6.00;5.40;;;28.40;44.00;;;;;;5055543;28;20481;-78
2023/07/22 12:43:39;;;;;;;5.87;5.40;;;28.40;44.10;;;;;;5054234;28;20485;-78
2023/07/22 12:46:07;;;;;;;6.27;5.47;;;28.40;44.00;;;;;;5059805;28;20478;-79
2023/07/22 12:48:35;;;;;;;5.53;5.10;;;28.40;44.10;;;;;;5058307;28;20483;-78
2023/07/22 12:51:04;;;;;;;5.77;5.37;;;28.40;44.10;;;;;;5062140;28;20502;-79
2023/07/22 12:53:32;;;;;;;5.90;5.40;;;28.40;44.70;;;;;;5059456;28;20409;-78